sensor_id;sensor_type;location;lat;lon;timestamp;P1;durP1;ratioP1;P2;durP2;ratioP2
52650;SDS011;38537;47.226;39.702;2023-04-16T00:02:12;7.68;;;5.60;;
52650;SDS011;38537;47.226;39.702;2023-04-16T00:04:40;8.93;;;5.75;;
52650;SDS011;38537;47.226;39.702;2023-04-16T00:07:08;9.00;;;5.60;;
52650;SDS011;38537;47.226;39.702;2023-04-16T00:09:35;6.28;;;5.40;;
52650;SDS011;38537;47.226;39.702;2023-04-16T00:12:02;8.48;;;5.85;;
52650;SDS011;38537;47.226;39.702;2023-04-16T00:14:30;7.22;;;5.25;;
52650;SDS011;38537;47.226;39.702;2023-04-16T00:16:58;7.55;;;5.65;;
52650;SDS011;38537;47.226;39.702;2023-04-16T00:19:25;7.35;;;5.50;;
52650;SDS011;38537;47.226;39.702;2023-04-16T00:21:52;6.30;;;5.40;;
52650;SDS011;38537;47.226;39.702;2023-04-16T00:24:19;7.28;;;6.00;;
52650;SDS011;38537;47.226;39.702;2023-04-16T00:26:46;10.30;;;6.30;;
52650;SDS011;38537;47.226;39.702;2023-04-16T00:29:14;7.70;;;6.03;;
52650;SDS011;38537;47.226;39.702;2023-04-16T00:31:41;9.13;;;5.95;;
52650;SDS011;38537;47.226;39.702;2023-04-16T00:34:08;6.95;;;5.45;;
52650;SDS011;38537;47.226;39.702;2023-04-16T00:36:35;9.65;;;6.32;;
52650;SDS011;38537;47.226;39.702;2023-04-16T00:39:03;10.85;;;6.50;;
52650;SDS011;38537;47.226;39.702;2023-04-16T00:41:31;7.45;;;6.25;;
52650;SDS011;38537;47.226;39.702;2023-04-16T00:43:58;7.93;;;6.22;;
52650;SDS011;38537;47.226;39.702;2023-04-16T00:46:25;9.70;;;6.60;;
52650;SDS011;38537;47.226;39.702;2023-04-16T00:48:53;7.53;;;6.53;;
52650;SDS011;38537;47.226;39.702;2023-04-16T00:51:21;7.32;;;6.07;;
52650;SDS011;38537;47.226;39.702;2023-04-16T00:53:49;7.47;;;6.63;;
52650;SDS011;38537;47.226;39.702;2023-04-16T00:56:16;7.25;;;5.82;;
52650;SDS011;38537;47.226;39.702;2023-04-16T00:58:43;8.00;;;6.25;;
52650;SDS011;38537;47.226;39.702;2023-04-16T01:01:12;8.88;;;6.18;;
52650;SDS011;38537;47.226;39.702;2023-04-16T01:03:43;7.68;;;6.32;;
52650;SDS011;38537;47.226;39.702;2023-04-16T01:06:13;8.65;;;6.10;;
52650;SDS011;38537;47.226;39.702;2023-04-16T01:08:42;9.25;;;6.40;;
52650;SDS011;38537;47.226;39.702;2023-04-16T01:11:11;9.40;;;6.25;;
52650;SDS011;38537;47.226;39.702;2023-04-16T01:13:40;7.72;;;6.00;;
52650;SDS011;38537;47.226;39.702;2023-04-16T01:16:08;6.78;;;6.05;;
52650;SDS011;38537;47.226;39.702;2023-04-16T01:18:37;9.18;;;6.13;;
52650;SDS011;38537;47.226;39.702;2023-04-16T01:21:04;7.47;;;5.85;;
52650;SDS011;38537;47.226;39.702;2023-04-16T01:23:32;8.48;;;5.90;;
52650;SDS011;38537;47.226;39.702;2023-04-16T01:26:01;6.57;;;5.65;;
52650;SDS011;38537;47.226;39.702;2023-04-16T01:28:28;8.20;;;5.72;;
52650;SDS011;38537;47.226;39.702;2023-04-16T01:30:55;10.82;;;6.60;;
52650;SDS011;38537;47.226;39.702;2023-04-16T01:33:44;10.98;;;5.68;;
52650;SDS011;38537;47.226;39.702;2023-04-16T01:36:11;7.72;;;5.20;;
52650;SDS011;38537;47.226;39.702;2023-04-16T01:38:39;7.15;;;5.20;;
52650;SDS011;38537;47.226;39.702;2023-04-16T01:41:06;8.35;;;5.78;;
52650;SDS011;38537;47.226;39.702;2023-04-16T01:43:34;6.60;;;5.47;;
52650;SDS011;38537;47.226;39.702;2023-04-16T01:46:22;6.78;;;5.78;;
52650;SDS011;38537;47.226;39.702;2023-04-16T01:48:54;8.35;;;5.75;;
52650;SDS011;38537;47.226;39.702;2023-04-16T01:51:21;9.68;;;6.03;;
52650;SDS011;38537;47.226;39.702;2023-04-16T01:53:49;7.40;;;5.80;;
52650;SDS011;38537;47.226;39.702;2023-04-16T01:56:17;10.07;;;6.50;;
52650;SDS011;38537;47.226;39.702;2023-04-16T01:58:45;7.30;;;5.95;;
52650;SDS011;38537;47.226;39.702;2023-04-16T02:01:14;10.13;;;6.30;;
52650;SDS011;38537;47.226;39.702;2023-04-16T02:03:43;6.68;;;5.95;;
52650;SDS011;38537;47.226;39.702;2023-04-16T02:06:11;6.78;;;5.30;;
52650;SDS011;38537;47.226;39.702;2023-04-16T02:08:39;7.85;;;5.63;;
52650;SDS011;38537;47.226;39.702;2023-04-16T02:11:07;8.63;;;6.25;;
52650;SDS011;38537;47.226;39.702;2023-04-16T02:13:35;7.88;;;5.82;;
52650;SDS011;38537;47.226;39.702;2023-04-16T02:16:04;7.80;;;6.07;;
52650;SDS011;38537;47.226;39.702;2023-04-16T02:19:05;8.60;;;6.07;;
52650;SDS011;38537;47.226;39.702;2023-04-16T02:21:34;7.68;;;5.93;;
52650;SDS011;38537;47.226;39.702;2023-04-16T02:24:02;7.40;;;6.00;;
52650;SDS011;38537;47.226;39.702;2023-04-16T02:26:30;8.05;;;6.13;;
52650;SDS011;38537;47.226;39.702;2023-04-16T02:29:03;5.95;;;4.78;;
52650;SDS011;38537;47.226;39.702;2023-04-16T02:31:37;8.57;;;5.88;;
52650;SDS011;38537;47.226;39.702;2023-04-16T02:34:07;6.85;;;6.15;;
52650;SDS011;38537;47.226;39.702;2023-04-16T02:36:34;9.10;;;5.47;;
52650;SDS011;38537;47.226;39.702;2023-04-16T02:39:01;6.03;;;5.43;;
52650;SDS011;38537;47.226;39.702;2023-04-16T02:41:28;8.93;;;5.60;;
52650;SDS011;38537;47.226;39.702;2023-04-16T02:43:56;9.25;;;5.53;;
52650;SDS011;38537;47.226;39.702;2023-04-16T02:46:23;8.65;;;5.50;;
52650;SDS011;38537;47.226;39.702;2023-04-16T02:48:51;7.45;;;4.97;;
52650;SDS011;38537;47.226;39.702;2023-04-16T02:51:18;10.73;;;5.45;;
52650;SDS011;38537;47.226;39.702;2023-04-16T02:53:45;7.65;;;5.18;;
52650;SDS011;38537;47.226;39.702;2023-04-16T02:56:13;9.13;;;5.25;;
52650;SDS011;38537;47.226;39.702;2023-04-16T02:58:40;6.57;;;4.95;;
52650;SDS011;38537;47.226;39.702;2023-04-16T03:01:07;7.78;;;4.82;;
52650;SDS011;38537;47.226;39.702;2023-04-16T03:03:34;6.95;;;5.22;;
52650;SDS011;38537;47.226;39.702;2023-04-16T03:06:02;5.95;;;4.88;;
52650;SDS011;38537;47.226;39.702;2023-04-16T03:08:29;9.00;;;5.30;;
52650;SDS011;38537;47.226;39.702;2023-04-16T03:10:56;7.43;;;5.28;;
52650;SDS011;38537;47.226;39.702;2023-04-16T03:13:23;6.25;;;5.47;;
52650;SDS011;38537;47.226;39.702;2023-04-16T03:15:51;6.97;;;5.32;;
52650;SDS011;38537;47.226;39.702;2023-04-16T03:18:18;6.75;;;5.03;;
52650;SDS011;38537;47.226;39.702;2023-04-16T03:20:51;8.00;;;5.18;;
52650;SDS011;38537;47.226;39.702;2023-04-16T03:23:20;10.35;;;5.57;;
52650;SDS011;38537;47.226;39.702;2023-04-16T03:25:47;9.65;;;5.20;;
52650;SDS011;38537;47.226;39.702;2023-04-16T03:28:17;7.72;;;5.10;;
52650;SDS011;38537;47.226;39.702;2023-04-16T03:30:51;6.35;;;5.60;;
52650;SDS011;38537;47.226;39.702;2023-04-16T03:33:19;7.35;;;5.63;;
52650;SDS011;38537;47.226;39.702;2023-04-16T03:35:53;7.05;;;5.28;;
52650;SDS011;38537;47.226;39.702;2023-04-16T03:38:22;8.80;;;5.18;;
52650;SDS011;38537;47.226;39.702;2023-04-16T03:40:54;9.10;;;5.88;;
52650;SDS011;38537;47.226;39.702;2023-04-16T03:43:22;5.90;;;5.30;;
52650;SDS011;38537;47.226;39.702;2023-04-16T03:45:50;7.65;;;5.25;;
52650;SDS011;38537;47.226;39.702;2023-04-16T03:48:20;7.60;;;5.18;;
52650;SDS011;38537;47.226;39.702;2023-04-16T03:50:47;6.38;;;5.10;;
52650;SDS011;38537;47.226;39.702;2023-04-16T03:53:17;7.38;;;5.00;;
52650;SDS011;38537;47.226;39.702;2023-04-16T03:55:48;6.78;;;5.25;;
52650;SDS011;38537;47.226;39.702;2023-04-16T03:58:18;5.80;;;4.60;;
52650;SDS011;38537;47.226;39.702;2023-04-16T04:00:46;5.82;;;4.60;;
52650;SDS011;38537;47.226;39.702;2023-04-16T04:03:15;6.75;;;3.90;;
52650;SDS011;38537;47.226;39.702;2023-04-16T04:05:46;5.47;;;3.97;;
52650;SDS011;38537;47.226;39.702;2023-04-16T04:08:17;5.88;;;3.85;;
52650;SDS011;38537;47.226;39.702;2023-04-16T04:10:44;6.13;;;3.85;;
52650;SDS011;38537;47.226;39.702;2023-04-16T04:13:13;7.35;;;4.00;;
52650;SDS011;38537;47.226;39.702;2023-04-16T04:15:41;5.72;;;4.13;;
52650;SDS011;38537;47.226;39.702;2023-04-16T04:18:08;7.40;;;4.00;;
52650;SDS011;38537;47.226;39.702;2023-04-16T04:20:38;8.38;;;3.97;;
52650;SDS011;38537;47.226;39.702;2023-04-16T04:23:07;5.22;;;3.83;;
52650;SDS011;38537;47.226;39.702;2023-04-16T04:25:34;5.30;;;3.50;;
52650;SDS011;38537;47.226;39.702;2023-04-16T04:28:02;4.68;;;3.70;;
52650;SDS011;38537;47.226;39.702;2023-04-16T04:30:29;4.10;;;3.42;;
52650;SDS011;38537;47.226;39.702;2023-04-16T04:32:56;4.63;;;3.72;;
52650;SDS011;38537;47.226;39.702;2023-04-16T04:35:24;4.78;;;3.05;;
52650;SDS011;38537;47.226;39.702;2023-04-16T04:37:52;4.57;;;3.33;;
52650;SDS011;38537;47.226;39.702;2023-04-16T04:40:19;4.40;;;3.35;;
52650;SDS011;38537;47.226;39.702;2023-04-16T04:42:47;4.75;;;3.30;;
52650;SDS011;38537;47.226;39.702;2023-04-16T04:45:14;4.15;;;3.40;;
52650;SDS011;38537;47.226;39.702;2023-04-16T04:47:42;4.25;;;3.25;;
52650;SDS011;38537;47.226;39.702;2023-04-16T04:50:09;5.63;;;3.63;;
52650;SDS011;38537;47.226;39.702;2023-04-16T04:52:37;7.00;;;3.97;;
52650;SDS011;38537;47.226;39.702;2023-04-16T04:55:06;4.68;;;3.38;;
52650;SDS011;38537;47.226;39.702;2023-04-16T04:57:34;4.75;;;3.35;;
52650;SDS011;38537;47.226;39.702;2023-04-16T05:00:04;5.43;;;3.78;;
52650;SDS011;38537;47.226;39.702;2023-04-16T05:02:40;5.00;;;3.40;;
52650;SDS011;38537;47.226;39.702;2023-04-16T05:05:07;6.75;;;4.28;;
52650;SDS011;38537;47.226;39.702;2023-04-16T05:07:35;5.50;;;3.53;;
52650;SDS011;38537;47.226;39.702;2023-04-16T05:10:02;4.07;;;3.38;;
52650;SDS011;38537;47.226;39.702;2023-04-16T05:12:30;5.68;;;3.33;;
52650;SDS011;38537;47.226;39.702;2023-04-16T05:14:57;5.40;;;3.58;;
52650;SDS011;38537;47.226;39.702;2023-04-16T05:17:25;4.63;;;3.20;;
52650;SDS011;38537;47.226;39.702;2023-04-16T05:19:52;5.53;;;3.42;;
52650;SDS011;38537;47.226;39.702;2023-04-16T05:22:19;4.50;;;3.38;;
52650;SDS011;38537;47.226;39.702;2023-04-16T05:24:46;4.60;;;3.33;;
52650;SDS011;38537;47.226;39.702;2023-04-16T05:27:14;4.05;;;3.30;;
52650;SDS011;38537;47.226;39.702;2023-04-16T05:29:41;5.28;;;3.60;;
52650;SDS011;38537;47.226;39.702;2023-04-16T05:32:08;5.03;;;3.28;;
52650;SDS011;38537;47.226;39.702;2023-04-16T05:34:36;5.78;;;3.10;;
52650;SDS011;38537;47.226;39.702;2023-04-16T05:37:03;6.60;;;3.10;;
52650;SDS011;38537;47.226;39.702;2023-04-16T05:39:30;4.43;;;2.78;;
52650;SDS011;38537;47.226;39.702;2023-04-16T05:41:57;3.97;;;3.30;;
52650;SDS011;38537;47.226;39.702;2023-04-16T05:44:25;4.30;;;3.00;;
52650;SDS011;38537;47.226;39.702;2023-04-16T05:46:52;7.78;;;3.30;;
52650;SDS011;38537;47.226;39.702;2023-04-16T05:49:19;4.50;;;2.90;;
52650;SDS011;38537;47.226;39.702;2023-04-16T05:51:47;5.43;;;3.05;;
52650;SDS011;38537;47.226;39.702;2023-04-16T05:54:16;3.40;;;2.55;;
52650;SDS011;38537;47.226;39.702;2023-04-16T05:56:44;4.63;;;2.70;;
52650;SDS011;38537;47.226;39.702;2023-04-16T05:59:11;5.45;;;2.40;;
52650;SDS011;38537;47.226;39.702;2023-04-16T06:01:38;3.60;;;2.38;;
52650;SDS011;38537;47.226;39.702;2023-04-16T06:04:06;4.38;;;2.33;;
52650;SDS011;38537;47.226;39.702;2023-04-16T06:06:33;5.95;;;2.40;;
52650;SDS011;38537;47.226;39.702;2023-04-16T06:09:00;6.63;;;2.50;;
52650;SDS011;38537;47.226;39.702;2023-04-16T06:11:28;5.88;;;2.20;;
52650;SDS011;38537;47.226;39.702;2023-04-16T06:13:56;2.92;;;2.30;;
52650;SDS011;38537;47.226;39.702;2023-04-16T06:16:23;3.80;;;2.35;;
52650;SDS011;38537;47.226;39.702;2023-04-16T06:18:51;4.10;;;2.67;;
52650;SDS011;38537;47.226;39.702;2023-04-16T06:21:18;2.80;;;2.20;;
52650;SDS011;38537;47.226;39.702;2023-04-16T06:23:46;4.97;;;2.30;;
52650;SDS011;38537;47.226;39.702;2023-04-16T06:26:13;4.82;;;2.55;;
52650;SDS011;38537;47.226;39.702;2023-04-16T06:28:40;6.85;;;2.42;;
52650;SDS011;38537;47.226;39.702;2023-04-16T06:31:07;4.10;;;2.50;;
52650;SDS011;38537;47.226;39.702;2023-04-16T06:33:35;6.18;;;2.53;;
52650;SDS011;38537;47.226;39.702;2023-04-16T06:36:02;4.57;;;2.30;;
52650;SDS011;38537;47.226;39.702;2023-04-16T06:38:29;3.70;;;2.40;;
52650;SDS011;38537;47.226;39.702;2023-04-16T06:40:56;4.45;;;2.42;;
52650;SDS011;38537;47.226;39.702;2023-04-16T06:43:25;2.33;;;2.00;;
52650;SDS011;38537;47.226;39.702;2023-04-16T06:45:53;4.03;;;2.30;;
52650;SDS011;38537;47.226;39.702;2023-04-16T06:48:21;7.13;;;2.72;;
52650;SDS011;38537;47.226;39.702;2023-04-16T06:50:48;3.20;;;2.20;;
52650;SDS011;38537;47.226;39.702;2023-04-16T06:53:16;6.93;;;2.60;;
52650;SDS011;38537;47.226;39.702;2023-04-16T06:55:43;3.65;;;2.40;;
52650;SDS011;38537;47.226;39.702;2023-04-16T06:58:11;5.95;;;2.80;;
52650;SDS011;38537;47.226;39.702;2023-04-16T07:00:39;4.30;;;2.35;;
52650;SDS011;38537;47.226;39.702;2023-04-16T07:03:06;3.05;;;2.50;;
52650;SDS011;38537;47.226;39.702;2023-04-16T07:05:33;4.63;;;2.42;;
52650;SDS011;38537;47.226;39.702;2023-04-16T07:08:00;8.20;;;2.90;;
52650;SDS011;38537;47.226;39.702;2023-04-16T07:10:27;4.15;;;2.80;;
52650;SDS011;38537;47.226;39.702;2023-04-16T07:12:55;7.03;;;2.85;;
52650;SDS011;38537;47.226;39.702;2023-04-16T07:15:22;6.90;;;2.80;;
52650;SDS011;38537;47.226;39.702;2023-04-16T07:17:49;5.65;;;2.40;;
52650;SDS011;38537;47.226;39.702;2023-04-16T07:20:17;4.43;;;2.58;;
52650;SDS011;38537;47.226;39.702;2023-04-16T07:22:44;4.75;;;2.83;;
52650;SDS011;38537;47.226;39.702;2023-04-16T07:25:11;4.53;;;2.67;;
52650;SDS011;38537;47.226;39.702;2023-04-16T07:27:38;3.15;;;2.20;;
52650;SDS011;38537;47.226;39.702;2023-04-16T07:30:05;3.80;;;2.47;;
52650;SDS011;38537;47.226;39.702;2023-04-16T07:32:33;3.75;;;2.33;;
52650;SDS011;38537;47.226;39.702;2023-04-16T07:35:01;6.80;;;2.97;;
52650;SDS011;38537;47.226;39.702;2023-04-16T07:37:30;3.88;;;2.25;;
52650;SDS011;38537;47.226;39.702;2023-04-16T07:39:58;3.78;;;2.38;;
52650;SDS011;38537;47.226;39.702;2023-04-16T07:42:29;7.45;;;2.90;;
52650;SDS011;38537;47.226;39.702;2023-04-16T07:44:56;3.40;;;2.55;;
52650;SDS011;38537;47.226;39.702;2023-04-16T07:47:24;4.00;;;1.98;;
52650;SDS011;38537;47.226;39.702;2023-04-16T07:49:52;14.93;;;2.30;;
52650;SDS011;38537;47.226;39.702;2023-04-16T07:52:19;5.70;;;2.40;;
52650;SDS011;38537;47.226;39.702;2023-04-16T07:54:46;4.63;;;1.90;;
52650;SDS011;38537;47.226;39.702;2023-04-16T07:57:14;2.40;;;1.92;;
52650;SDS011;38537;47.226;39.702;2023-04-16T07:59:42;3.92;;;2.10;;
52650;SDS011;38537;47.226;39.702;2023-04-16T08:02:11;4.47;;;2.38;;
52650;SDS011;38537;47.226;39.702;2023-04-16T08:04:41;3.00;;;2.15;;
52650;SDS011;38537;47.226;39.702;2023-04-16T08:07:09;5.35;;;2.20;;
52650;SDS011;38537;47.226;39.702;2023-04-16T08:09:42;4.00;;;2.10;;
52650;SDS011;38537;47.226;39.702;2023-04-16T08:12:23;3.20;;;2.05;;
52650;SDS011;38537;47.226;39.702;2023-04-16T08:14:51;2.38;;;2.17;;
52650;SDS011;38537;47.226;39.702;2023-04-16T08:17:18;3.53;;;2.20;;
52650;SDS011;38537;47.226;39.702;2023-04-16T08:19:45;3.97;;;2.30;;
52650;SDS011;38537;47.226;39.702;2023-04-16T08:22:12;4.70;;;2.05;;
52650;SDS011;38537;47.226;39.702;2023-04-16T08:24:40;3.33;;;2.10;;
52650;SDS011;38537;47.226;39.702;2023-04-16T08:27:07;4.72;;;2.33;;
52650;SDS011;38537;47.226;39.702;2023-04-16T08:29:46;5.50;;;2.28;;
52650;SDS011;38537;47.226;39.702;2023-04-16T08:32:13;3.30;;;2.35;;
52650;SDS011;38537;47.226;39.702;2023-04-16T08:34:41;4.35;;;2.13;;
52650;SDS011;38537;47.226;39.702;2023-04-16T08:37:08;2.95;;;2.42;;
52650;SDS011;38537;47.226;39.702;2023-04-16T08:39:36;3.90;;;1.90;;
52650;SDS011;38537;47.226;39.702;2023-04-16T08:42:03;3.63;;;1.90;;
52650;SDS011;38537;47.226;39.702;2023-04-16T08:44:33;5.90;;;2.17;;
52650;SDS011;38537;47.226;39.702;2023-04-16T08:47:03;3.25;;;1.92;;
52650;SDS011;38537;47.226;39.702;2023-04-16T08:49:35;3.97;;;2.13;;
52650;SDS011;38537;47.226;39.702;2023-04-16T08:52:05;3.53;;;2.10;;
52650;SDS011;38537;47.226;39.702;2023-04-16T08:57:37;3.33;;;2.00;;
52650;SDS011;38537;47.226;39.702;2023-04-16T09:00:10;2.30;;;1.73;;
52650;SDS011;38537;47.226;39.702;2023-04-16T09:02:39;3.58;;;1.77;;
52650;SDS011;38537;47.226;39.702;2023-04-16T09:05:07;4.13;;;2.10;;
52650;SDS011;38537;47.226;39.702;2023-04-16T09:07:40;5.25;;;1.98;;
52650;SDS011;38537;47.226;39.702;2023-04-16T09:10:07;4.25;;;1.83;;
52650;SDS011;38537;47.226;39.702;2023-04-16T09:12:36;4.35;;;1.70;;
52650;SDS011;38537;47.226;39.702;2023-04-16T09:15:04;4.93;;;2.13;;
52650;SDS011;38537;47.226;39.702;2023-04-16T09:17:33;3.92;;;2.13;;
52650;SDS011;38537;47.226;39.702;2023-04-16T09:20:01;2.83;;;1.80;;
52650;SDS011;38537;47.226;39.702;2023-04-16T09:22:31;2.47;;;1.95;;
52650;SDS011;38537;47.226;39.702;2023-04-16T09:24:58;6.60;;;1.80;;
52650;SDS011;38537;47.226;39.702;2023-04-16T09:27:26;2.88;;;1.70;;
52650;SDS011;38537;47.226;39.702;2023-04-16T09:29:54;2.63;;;1.83;;
52650;SDS011;38537;47.226;39.702;2023-04-16T09:32:25;2.47;;;1.80;;
52650;SDS011;38537;47.226;39.702;2023-04-16T09:34:54;3.03;;;1.70;;
52650;SDS011;38537;47.226;39.702;2023-04-16T09:37:22;3.72;;;2.00;;
52650;SDS011;38537;47.226;39.702;2023-04-16T09:40:00;4.57;;;1.90;;
52650;SDS011;38537;47.226;39.702;2023-04-16T09:42:34;5.65;;;2.00;;
52650;SDS011;38537;47.226;39.702;2023-04-16T09:45:03;6.68;;;1.90;;
52650;SDS011;38537;47.226;39.702;2023-04-16T09:47:39;2.47;;;1.80;;
52650;SDS011;38537;47.226;39.702;2023-04-16T09:50:15;3.90;;;1.73;;
52650;SDS011;38537;47.226;39.702;2023-04-16T09:52:46;4.95;;;1.90;;
52650;SDS011;38537;47.226;39.702;2023-04-16T09:55:21;5.97;;;1.80;;
52650;SDS011;38537;47.226;39.702;2023-04-16T09:57:55;3.20;;;1.60;;
52650;SDS011;38537;47.226;39.702;2023-04-16T10:00:24;4.03;;;1.70;;
52650;SDS011;38537;47.226;39.702;2023-04-16T10:03:01;2.33;;;1.60;;
52650;SDS011;38537;47.226;39.702;2023-04-16T10:05:30;4.85;;;1.70;;
52650;SDS011;38537;47.226;39.702;2023-04-16T10:08:01;2.92;;;1.70;;
52650;SDS011;38537;47.226;39.702;2023-04-16T10:10:28;2.15;;;1.67;;
52650;SDS011;38537;47.226;39.702;2023-04-16T10:12:56;3.47;;;1.67;;
52650;SDS011;38537;47.226;39.702;2023-04-16T10:15:24;2.55;;;1.45;;
52650;SDS011;38537;47.226;39.702;2023-04-16T10:17:52;3.00;;;1.58;;
52650;SDS011;38537;47.226;39.702;2023-04-16T10:20:19;3.20;;;1.67;;
52650;SDS011;38537;47.226;39.702;2023-04-16T10:22:48;2.97;;;1.67;;
52650;SDS011;38537;47.226;39.702;2023-04-16T10:25:15;5.15;;;2.03;;
52650;SDS011;38537;47.226;39.702;2023-04-16T10:27:45;2.65;;;1.80;;
52650;SDS011;38537;47.226;39.702;2023-04-16T10:30:14;1.90;;;1.70;;
52650;SDS011;38537;47.226;39.702;2023-04-16T10:32:42;2.60;;;1.92;;
52650;SDS011;38537;47.226;39.702;2023-04-16T10:35:13;3.40;;;1.70;;
52650;SDS011;38537;47.226;39.702;2023-04-16T10:37:44;3.30;;;1.60;;
52650;SDS011;38537;47.226;39.702;2023-04-16T10:40:21;5.10;;;1.70;;
52650;SDS011;38537;47.226;39.702;2023-04-16T10:42:56;3.45;;;1.90;;
52650;SDS011;38537;47.226;39.702;2023-04-16T10:45:31;5.03;;;1.80;;
52650;SDS011;38537;47.226;39.702;2023-04-16T10:48:04;2.00;;;1.50;;
52650;SDS011;38537;47.226;39.702;2023-04-16T10:50:37;2.67;;;1.83;;
52650;SDS011;38537;47.226;39.702;2023-04-16T10:53:24;3.78;;;1.80;;
52650;SDS011;38537;47.226;39.702;2023-04-16T10:55:57;4.13;;;1.70;;
52650;SDS011;38537;47.226;39.702;2023-04-16T10:58:30;3.40;;;1.63;;
52650;SDS011;38537;47.226;39.702;2023-04-16T11:01:00;2.63;;;1.70;;
52650;SDS011;38537;47.226;39.702;2023-04-16T11:03:33;2.20;;;1.60;;
52650;SDS011;38537;47.226;39.702;2023-04-16T11:06:10;3.00;;;2.05;;
52650;SDS011;38537;47.226;39.702;2023-04-16T11:08:39;3.67;;;1.88;;
52650;SDS011;38537;47.226;39.702;2023-04-16T11:11:20;3.42;;;1.90;;
52650;SDS011;38537;47.226;39.702;2023-04-16T11:13:47;2.67;;;1.77;;
52650;SDS011;38537;47.226;39.702;2023-04-16T11:16:15;2.83;;;1.80;;
52650;SDS011;38537;47.226;39.702;2023-04-16T11:18:44;2.90;;;1.52;;
52650;SDS011;38537;47.226;39.702;2023-04-16T11:21:17;2.67;;;1.70;;
52650;SDS011;38537;47.226;39.702;2023-04-16T11:23:50;2.30;;;1.55;;
52650;SDS011;38537;47.226;39.702;2023-04-16T11:26:20;2.00;;;1.60;;
52650;SDS011;38537;47.226;39.702;2023-04-16T11:28:54;3.08;;;1.83;;
52650;SDS011;38537;47.226;39.702;2023-04-16T11:31:23;2.55;;;1.60;;
52650;SDS011;38537;47.226;39.702;2023-04-16T11:33:50;3.38;;;1.85;;
52650;SDS011;38537;47.226;39.702;2023-04-16T11:36:18;3.35;;;1.65;;
52650;SDS011;38537;47.226;39.702;2023-04-16T11:38:45;1.70;;;1.50;;
52650;SDS011;38537;47.226;39.702;2023-04-16T11:41:18;3.75;;;1.63;;
52650;SDS011;38537;47.226;39.702;2023-04-16T11:43:46;2.33;;;1.58;;
52650;SDS011;38537;47.226;39.702;2023-04-16T11:46:13;4.43;;;1.77;;
52650;SDS011;38537;47.226;39.702;2023-04-16T11:48:53;2.67;;;1.70;;
52650;SDS011;38537;47.226;39.702;2023-04-16T11:51:37;4.68;;;2.00;;
52650;SDS011;38537;47.226;39.702;2023-04-16T11:54:05;3.63;;;1.90;;
52650;SDS011;38537;47.226;39.702;2023-04-16T11:56:37;3.88;;;1.80;;
52650;SDS011;38537;47.226;39.702;2023-04-16T12:01:41;3.15;;;2.33;;
52650;SDS011;38537;47.226;39.702;2023-04-16T12:04:12;3.53;;;2.13;;
52650;SDS011;38537;47.226;39.702;2023-04-16T12:06:40;2.78;;;2.00;;
52650;SDS011;38537;47.226;39.702;2023-04-16T12:09:28;4.55;;;2.30;;
52650;SDS011;38537;47.226;39.702;2023-04-16T12:11:56;4.63;;;2.20;;
52650;SDS011;38537;47.226;39.702;2023-04-16T12:14:23;2.85;;;2.33;;
52650;SDS011;38537;47.226;39.702;2023-04-16T12:16:50;4.78;;;2.40;;
52650;SDS011;38537;47.226;39.702;2023-04-16T12:19:17;4.80;;;3.13;;
52650;SDS011;38537;47.226;39.702;2023-04-16T12:21:46;6.20;;;2.78;;
52650;SDS011;38537;47.226;39.702;2023-04-16T12:24:15;10.10;;;3.10;;
52650;SDS011;38537;47.226;39.702;2023-04-16T12:26:46;4.00;;;2.67;;
52650;SDS011;38537;47.226;39.702;2023-04-16T12:31:47;3.40;;;2.20;;
52650;SDS011;38537;47.226;39.702;2023-04-16T12:34:16;3.97;;;2.50;;
52650;SDS011;38537;47.226;39.702;2023-04-16T12:36:45;4.78;;;2.63;;
52650;SDS011;38537;47.226;39.702;2023-04-16T12:39:14;4.60;;;2.90;;
52650;SDS011;38537;47.226;39.702;2023-04-16T12:41:42;5.50;;;2.25;;
52650;SDS011;38537;47.226;39.702;2023-04-16T12:44:14;5.38;;;2.28;;
52650;SDS011;38537;47.226;39.702;2023-04-16T12:46:43;4.82;;;2.33;;
52650;SDS011;38537;47.226;39.702;2023-04-16T12:49:11;4.93;;;2.70;;
52650;SDS011;38537;47.226;39.702;2023-04-16T12:51:38;5.75;;;2.65;;
52650;SDS011;38537;47.226;39.702;2023-04-16T12:54:06;4.32;;;2.70;;
52650;SDS011;38537;47.226;39.702;2023-04-16T12:56:33;2.88;;;2.20;;
52650;SDS011;38537;47.226;39.702;2023-04-16T12:59:01;4.55;;;2.65;;
52650;SDS011;38537;47.226;39.702;2023-04-16T13:01:29;4.13;;;2.17;;
52650;SDS011;38537;47.226;39.702;2023-04-16T13:03:56;4.03;;;2.22;;
52650;SDS011;38537;47.226;39.702;2023-04-16T13:06:24;6.35;;;2.13;;
52650;SDS011;38537;47.226;39.702;2023-04-16T13:08:52;3.88;;;2.22;;
52650;SDS011;38537;47.226;39.702;2023-04-16T13:11:20;2.97;;;2.10;;
52650;SDS011;38537;47.226;39.702;2023-04-16T13:13:47;3.88;;;2.30;;
52650;SDS011;38537;47.226;39.702;2023-04-16T13:16:14;3.60;;;2.17;;
52650;SDS011;38537;47.226;39.702;2023-04-16T13:18:42;3.22;;;2.20;;
52650;SDS011;38537;47.226;39.702;2023-04-16T13:21:09;4.38;;;2.00;;
52650;SDS011;38537;47.226;39.702;2023-04-16T13:23:36;2.55;;;1.80;;
52650;SDS011;38537;47.226;39.702;2023-04-16T13:26:04;3.70;;;2.20;;
52650;SDS011;38537;47.226;39.702;2023-04-16T13:28:31;3.30;;;2.10;;
52650;SDS011;38537;47.226;39.702;2023-04-16T13:30:58;2.72;;;1.88;;
52650;SDS011;38537;47.226;39.702;2023-04-16T13:33:28;4.47;;;1.90;;
52650;SDS011;38537;47.226;39.702;2023-04-16T13:35:56;4.57;;;1.90;;
52650;SDS011;38537;47.226;39.702;2023-04-16T13:38:23;3.70;;;2.00;;
52650;SDS011;38537;47.226;39.702;2023-04-16T13:40:51;2.50;;;2.00;;
52650;SDS011;38537;47.226;39.702;2023-04-16T13:43:18;2.83;;;1.80;;
52650;SDS011;38537;47.226;39.702;2023-04-16T13:45:45;3.67;;;1.85;;
52650;SDS011;38537;47.226;39.702;2023-04-16T13:48:13;3.13;;;1.90;;
52650;SDS011;38537;47.226;39.702;2023-04-16T13:50:40;3.50;;;1.92;;
52650;SDS011;38537;47.226;39.702;2023-04-16T13:53:07;3.10;;;1.77;;
52650;SDS011;38537;47.226;39.702;2023-04-16T13:55:34;3.20;;;2.00;;
52650;SDS011;38537;47.226;39.702;2023-04-16T13:58:01;1.77;;;1.60;;
52650;SDS011;38537;47.226;39.702;2023-04-16T14:00:29;2.35;;;1.70;;
52650;SDS011;38537;47.226;39.702;2023-04-16T14:02:56;2.65;;;1.80;;
52650;SDS011;38537;47.226;39.702;2023-04-16T14:05:24;3.08;;;1.55;;
52650;SDS011;38537;47.226;39.702;2023-04-16T14:07:52;3.63;;;1.60;;
52650;SDS011;38537;47.226;39.702;2023-04-16T14:10:20;3.15;;;1.90;;
52650;SDS011;38537;47.226;39.702;2023-04-16T14:12:47;2.65;;;1.80;;
52650;SDS011;38537;47.226;39.702;2023-04-16T14:15:14;3.95;;;1.75;;
52650;SDS011;38537;47.226;39.702;2023-04-16T14:17:42;3.80;;;1.80;;
52650;SDS011;38537;47.226;39.702;2023-04-16T14:20:12;4.35;;;2.03;;
52650;SDS011;38537;47.226;39.702;2023-04-16T14:22:40;3.92;;;2.00;;
52650;SDS011;38537;47.226;39.702;2023-04-16T14:25:09;4.93;;;2.17;;
52650;SDS011;38537;47.226;39.702;2023-04-16T14:27:36;3.20;;;1.80;;
52650;SDS011;38537;47.226;39.702;2023-04-16T14:30:04;5.57;;;1.98;;
52650;SDS011;38537;47.226;39.702;2023-04-16T14:32:32;5.10;;;2.00;;
52650;SDS011;38537;47.226;39.702;2023-04-16T14:35:00;3.08;;;1.50;;
52650;SDS011;38537;47.226;39.702;2023-04-16T14:37:30;2.95;;;1.80;;
52650;SDS011;38537;47.226;39.702;2023-04-16T14:39:57;4.75;;;2.05;;
52650;SDS011;38537;47.226;39.702;2023-04-16T14:42:26;2.60;;;2.03;;
52650;SDS011;38537;47.226;39.702;2023-04-16T14:44:53;5.40;;;1.70;;
52650;SDS011;38537;47.226;39.702;2023-04-16T14:47:21;3.75;;;2.22;;
52650;SDS011;38537;47.226;39.702;2023-04-16T14:49:49;3.42;;;2.25;;
52650;SDS011;38537;47.226;39.702;2023-04-16T14:52:16;4.00;;;2.13;;